»·PEaware :: N46PM 3S8-KVUO

N46PM :: 3S8-KVUO

FLIGHT INFORMATION

Flight Status: Arrived
Operator: Privately registered:
United States
More flights under this callsign
Pilot: Gabor H. (24209)
Aircraft: PIPER PA-46-500TP MALIBU MERIDIAN
(P46T)
More flights by this aircraft type
Origin: 3S8 Grants Pass
United States
Destination: KVUO Pearson
United States
More flights between these airports :: More routes between these airports
Route: +RBG V495 UBG
File this flight plan on PilotEdge
Remarks:
Altitude:
(Current/Filed)
16,000ft
Speed:
(Current/Filed)
240kts
Departed: 23-Nov-20 02:21 PM
Arrived: 23-Nov-20 03:30 PM
Distance/Time
Traveled:
189nm/1:09
Distance/Time
To Go:
Arrived

Flight Plot

Page will automatically refresh every two minutes.

Flight plan parsing failed; only flown route is shown


Map Options




Map Legend


Flown Route
Filed Route
Departure Airport
Arrival Airport
Navaid (VOR, NDB)
Fix

Horizontal Profiles

Position Reports

Time Latitude Longitude Heading Altitude Ground
Speed
23-Nov-20 14:03 42.511088 -123.390850 51 1109ft 0kts
23-Nov-20 14:04 42.511088 -123.390850 51 1109ft 0kts
23-Nov-20 14:05 42.511088 -123.390850 51 1109ft 0kts
23-Nov-20 14:06 42.511088 -123.390850 51 1109ft 0kts
23-Nov-20 14:07 42.511088 -123.390850 51 1109ft 0kts
23-Nov-20 14:08 42.511088 -123.390850 51 1109ft 0kts
23-Nov-20 14:09 42.511088 -123.390850 51 1109ft 0kts
23-Nov-20 14:10 42.511088 -123.390850 51 1109ft 0kts
23-Nov-20 14:11 42.511088 -123.390850 51 1109ft 0kts
23-Nov-20 14:12 42.511088 -123.390850 51 1109ft 0kts
23-Nov-20 14:13 42.511088 -123.390850 51 1109ft 0kts
23-Nov-20 14:14 42.511088 -123.390850 51 1109ft 0kts
23-Nov-20 14:15 42.511088 -123.390850 51 1109ft 0kts
23-Nov-20 14:16 42.509850 -123.388839 142 1112ft 22kts
23-Nov-20 14:17 42.505855 -123.384523 145 1128ft 0kts
23-Nov-20 14:18 42.505550 -123.384148 104 1130ft 0kts
23-Nov-20 14:19 42.505550 -123.384147 104 1130ft 0kts
23-Nov-20 14:20 42.514231 -123.391850 326 1222ft 108kts
23-Nov-20 14:21 42.544647 -123.409122 335 2453ft 129kts
23-Nov-20 14:22 42.576333 -123.429219 335 3955ft 127kts
23-Nov-20 14:23 42.609004 -123.447918 335 5311ft 128kts
23-Nov-20 14:24 42.642765 -123.462978 1 6566ft 134kts
23-Nov-20 14:25 42.679974 -123.457406 3 7716ft 136kts
23-Nov-20 14:26 42.717560 -123.450399 2 8795ft 137kts
23-Nov-20 14:27 42.754944 -123.443061 0 9844ft 135kts
23-Nov-20 14:28 42.791113 -123.435854 0 11280ft 128kts
23-Nov-20 14:29 42.825456 -123.428731 359 12555ft 124kts
23-Nov-20 14:30 42.859275 -123.421577 359 13701ft 122kts
23-Nov-20 14:31 42.892645 -123.414453 359 14998ft 120kts
23-Nov-20 14:32 42.926001 -123.407377 0 15999ft 137kts
23-Nov-20 14:33 42.970018 -123.397841 1 15987ft 177kts
23-Nov-20 14:34 43.020121 -123.386927 2 15982ft 185kts
23-Nov-20 14:35 43.072458 -123.375554 2 15983ft 195kts
23-Nov-20 14:36 43.126387 -123.363894 2 15991ft 198kts
23-Nov-20 14:37 43.180802 -123.352078 2 15992ft 198kts
23-Nov-20 14:38 43.233660 -123.354451 345 15994ft 191kts
23-Nov-20 14:39 43.286404 -123.364608 350 15991ft 192kts
23-Nov-20 14:40 43.339839 -123.371733 350 15991ft 192kts
23-Nov-20 14:41 43.392941 -123.378419 350 15990ft 192kts
23-Nov-20 14:42 43.446111 -123.385078 350 15989ft 192kts
23-Nov-20 14:43 43.499126 -123.391721 350 15989ft 191kts
23-Nov-20 14:44 43.552214 -123.398384 350 15988ft 191kts
23-Nov-20 14:45 43.605049 -123.405026 350 15988ft 191kts
23-Nov-20 14:46 43.658179 -123.411721 350 15987ft 192kts
23-Nov-20 14:47 43.711266 -123.418417 350 15986ft 192kts
23-Nov-20 14:48 43.764463 -123.425140 350 15986ft 192kts
23-Nov-20 14:49 43.817638 -123.431872 350 15985ft 192kts
23-Nov-20 14:50 43.870678 -123.438601 350 15985ft 192kts
23-Nov-20 14:51 43.923841 -123.445350 350 15985ft 191kts
23-Nov-20 14:52 43.976741 -123.451180 351 15983ft 191kts
23-Nov-20 14:53 44.029765 -123.455881 351 15982ft 190kts
23-Nov-20 14:54 44.082672 -123.448306 6 15983ft 197kts
23-Nov-20 14:55 44.135974 -123.428862 6 16001ft 198kts
23-Nov-20 14:56 44.189501 -123.409080 6 16001ft 199kts
23-Nov-20 14:57 44.243356 -123.389114 6 15991ft 200kts
23-Nov-20 14:58 44.297043 -123.369182 6 15991ft 200kts
23-Nov-20 15:00 44.350828 -123.349173 6 15992ft 200kts
23-Nov-20 15:01 44.404378 -123.329213 6 15994ft 200kts
23-Nov-20 15:02 44.457988 -123.309192 6 15997ft 199kts
23-Nov-20 15:03 44.511546 -123.289279 6 16016ft 199kts
23-Nov-20 15:04 44.564992 -123.269790 6 16016ft 199kts
23-Nov-20 15:05 44.618412 -123.250292 6 16015ft 199kts
23-Nov-20 15:06 44.671861 -123.230730 5 16015ft 198kts
23-Nov-20 15:07 44.725264 -123.211162 5 16014ft 198kts
23-Nov-20 15:08 44.778553 -123.191592 5 16014ft 198kts
23-Nov-20 15:09 44.831818 -123.171961 5 15704ft 197kts
23-Nov-20 15:10 44.883754 -123.152837 5 14567ft 196kts
23-Nov-20 15:11 44.937284 -123.133075 6 13442ft 202kts
23-Nov-20 15:12 44.991623 -123.112901 5 12346ft 198kts
23-Nov-20 15:13 45.043871 -123.093587 6 11191ft 192kts
23-Nov-20 15:14 45.093291 -123.075236 6 10630ft 182kts
23-Nov-20 15:15 45.146551 -123.055486 8 9999ft 212kts
23-Nov-20 15:16 45.202741 -123.034482 9 8979ft 208kts
23-Nov-20 15:16 45.249102 -123.017149 9 8144ft 206kts
23-Nov-20 15:18 45.313323 -122.993105 10 6978ft 204kts
23-Nov-20 15:18 45.356711 -122.975336 26 6679ft 191kts
23-Nov-20 15:19 45.404877 -122.936555 25 6248ft 210kts
23-Nov-20 15:20 45.456011 -122.896414 25 5245ft 200kts
23-Nov-20 15:21 45.504175 -122.861558 19 4321ft 190kts
23-Nov-20 15:22 45.552549 -122.833570 19 3413ft 185kts
23-Nov-20 15:23 45.598922 -122.806828 20 2543ft 173kts
23-Nov-20 15:24 45.642864 -122.781753 19 1716ft 160kts
23-Nov-20 15:25 45.676743 -122.755971 77 1025ft 114kts
23-Nov-20 15:26 45.657947 -122.724645 145 981ft 106kts
23-Nov-20 15:27 45.634552 -122.697132 133 640ft 113kts
23-Nov-20 15:28 45.620851 -122.660851 100 33ft 78kts
23-Nov-20 15:29 45.620898 -122.651745 281 26ft 12kts
23-Nov-20 15:30 45.622253 -122.654341 279 27ft 8kts
23-Nov-20 15:31 45.622404 -122.654229 89 27ft 0kts
23-Nov-20 15:32 45.622404 -122.654229 89 27ft 0kts

Navigation Log

Ident Type
Flight plan parsing failed, navigation log unavailable